Time;durP1;ratioP1;P1;durP2;ratioP2;P2;SDS_P1;SDS_P2;PMS_P1;PMS_P2;Temp;Humidity;BMP_temperature;BMP_pressure;BME280_temperature;BME280_humidity;BME280_pressure;Samples;Min_cycle;Max_cycle;Signal;HPM_P1;HPM_P2
2023/06/22 00:01:51;;;;;;;5.38;2.70;;;;;;;;;;5051728;28;20107;-79
2023/06/22 00:04:17;;;;;;;5.82;3.90;;;;;;;;;;5064317;28;20032;-77
2023/06/22 00:06:43;;;;;;;6.53;3.95;;;;;;;;;;5048794;28;20437;-80
2023/06/22 00:09:10;;;;;;;7.22;4.35;;;;;;;;;;5051493;28;20490;-79
2023/06/22 00:11:36;;;;;;;8.38;4.20;;;;;;;;;;5052784;28;20108;-79
2023/06/22 00:14:03;;;;;;;5.45;4.03;;;;;;;;;;5052124;28;20041;-80
2023/06/22 00:16:29;;;;;;;9.32;4.97;;;;;;;;;;5049663;28;20491;-79
2023/06/22 00:18:55;;;;;;;7.03;4.47;;;;;;;;;;5050379;28;20505;-80
2023/06/22 00:21:21;;;;;;;6.70;4.60;;;;;;;;;;5052409;28;20029;-79
2023/06/22 00:23:47;;;;;;;10.45;4.88;;;;;;;;;;5053007;28;20043;-79
2023/06/22 00:26:14;;;;;;;8.55;4.85;;;;;;;;;;5068365;28;20025;-80
2023/06/22 00:28:40;;;;;;;7.85;4.68;;;;;;;;;;5053349;28;20025;-80
2023/06/22 00:31:06;;;;;;;11.40;4.65;;;;;;;;;;5049941;28;20548;-79
2023/06/22 00:33:32;;;;;;;7.50;3.90;;;;;;;;;;5047064;28;20109;-79
2023/06/22 00:36:02;;;;;;;8.18;4.10;;;;;;;;;;5043345;28;20032;-79
2023/06/22 00:38:29;;;;;;;6.88;4.18;;;;;;;;;;5052543;28;20495;-82
2023/06/22 00:40:55;;;;;;;8.48;4.35;;;;;;;;;;5052438;28;20025;-79
2023/06/22 00:43:21;;;;;;;9.13;5.57;;;;;;;;;;5063331;28;20086;-80
2023/06/22 00:45:47;;;;;;;6.82;3.78;;;;;;;;;;5040218;28;20086;-80
2023/06/22 00:48:14;;;;;;;8.48;4.75;;;;;;;;;;5050838;28;20036;-81
2023/06/22 00:50:40;;;;;;;8.15;4.88;;;;;;;;;;5050210;28;20083;-79
2023/06/22 00:53:08;;;;;;;9.00;4.82;;;;;;;;;;5049503;28;20036;-80
2023/06/22 00:55:37;;;;;;;8.75;5.20;;;;;;;;;;5032580;28;20044;-80
2023/06/22 00:58:05;;;;;;;10.05;5.18;;;;;;;;;;5021688;28;20033;-80
2023/06/22 01:00:32;;;;;;;7.40;3.90;;;;;;;;;;5038883;28;20029;-79
2023/06/22 01:02:58;;;;;;;8.25;4.40;;;;;;;;;;5031675;28;20029;-79
2023/06/22 01:05:24;;;;;;;9.60;5.25;;;;;;;;;;5032380;28;20025;-80
2023/06/22 01:08:09;;;;;;;6.40;4.32;;;;;;;;;;5048844;28;20498;-79
2023/06/22 01:10:38;;;;;;;6.70;3.50;;;;;;;;;;5028127;28;20506;-78
2023/06/22 01:13:07;;;;;;;9.02;4.68;;;;;;;;;;5040199;28;20494;-81
2023/06/22 01:15:59;;;;;;;9.82;4.20;;;;;;;;;;5036437;28;20490;-81
2023/06/22 01:18:27;;;;;;;7.25;3.80;;;;;;;;;;5052978;28;20045;-81
2023/06/22 01:20:55;;;;;;;11.25;4.97;;;;;;;;;;5031312;28;20380;-79
2023/06/22 01:23:36;;;;;;;7.93;4.18;;;;;;;;;;5062804;28;20027;-78
2023/06/22 01:26:18;;;;;;;6.75;3.90;;;;;;;;;;5054667;28;20486;-81
2023/06/22 01:28:47;;;;;;;6.18;3.58;;;;;;;;;;5050097;28;20028;-80
2023/06/22 01:31:14;;;;;;;8.38;4.72;;;;;;;;;;5042135;28;20080;-81
2023/06/22 01:33:42;;;;;;;6.57;3.38;;;;;;;;;;5040668;28;20055;-79
2023/06/22 01:36:09;;;;;;;7.47;4.43;;;;;;;;;;5025891;28;20037;-81
2023/06/22 01:38:36;;;;;;;7.00;4.45;;;;;;;;;;5040299;28;20037;-80
2023/06/22 01:41:03;;;;;;;7.72;4.43;;;;;;;;;;5030569;28;20033;-80
2023/06/22 01:43:29;;;;;;;6.00;3.70;;;;;;;;;;5052088;28;20411;-80
2023/06/22 01:45:56;;;;;;;9.20;4.78;;;;;;;;;;5048529;28;20092;-80
2023/06/22 01:48:22;;;;;;;7.97;4.82;;;;;;;;;;5048615;28;20033;-79
2023/06/22 01:50:48;;;;;;;8.77;4.70;;;;;;;;;;5026993;28;20056;-79
2023/06/22 01:53:14;;;;;;;8.82;5.28;;;;;;;;;;5039355;28;20403;-79
2023/06/22 01:55:40;;;;;;;8.15;6.05;;;;;;;;;;5035655;28;20660;-79
2023/06/22 01:58:06;;;;;;;10.07;5.68;;;;;;;;;;5036397;28;20124;-80
2023/06/22 02:00:33;;;;;;;11.57;5.43;;;;;;;;;;5024658;28;20056;-80
2023/06/22 02:03:06;;;;;;;9.63;6.43;;;;;;;;;;5021268;28;20025;-79
2023/06/22 02:05:34;;;;;;;6.47;4.68;;;;;;;;;;5026055;28;20155;-80
2023/06/22 02:08:09;;;;;;;10.48;6.70;;;;;;;;;;5022549;28;20040;-79
2023/06/22 02:10:36;;;;;;;11.27;6.70;;;;;;;;;;5037446;28;20090;-79
2023/06/22 02:13:03;;;;;;;9.73;5.85;;;;;;;;;;5036923;28;20029;-80
2023/06/22 02:15:29;;;;;;;8.38;5.65;;;;;;;;;;5035668;28;20021;-80
2023/06/22 02:17:55;;;;;;;9.00;5.30;;;;;;;;;;5030434;28;20075;-79
2023/06/22 02:20:21;;;;;;;10.10;5.57;;;;;;;;;;5035488;28;20022;-80
2023/06/22 02:22:47;;;;;;;8.35;4.93;;;;;;;;;;5048440;28;21379;-80
2023/06/22 02:25:13;;;;;;;9.98;5.40;;;;;;;;;;5035672;28;20120;-80
2023/06/22 02:27:40;;;;;;;7.88;4.72;;;;;;;;;;5049078;28;20121;-80
2023/06/22 02:30:07;;;;;;;12.00;6.35;;;;;;;;;;5035981;28;20062;-79
2023/06/22 02:32:34;;;;;;;9.38;5.45;;;;;;;;;;5036852;28;20045;-81
2023/06/22 02:35:03;;;;;;;10.73;6.18;;;;;;;;;;5044521;28;20032;-79
2023/06/22 02:37:29;;;;;;;8.80;6.13;;;;;;;;;;5030831;28;20038;-78
2023/06/22 02:39:55;;;;;;;10.88;6.95;;;;;;;;;;5044094;28;20029;-78
2023/06/22 02:42:21;;;;;;;10.02;5.95;;;;;;;;;;5051848;28;20470;-80
2023/06/22 02:44:48;;;;;;;9.45;6.45;;;;;;;;;;5055027;28;20056;-79
2023/06/22 02:47:14;;;;;;;11.77;7.68;;;;;;;;;;5059365;28;20413;-79
2023/06/22 02:49:40;;;;;;;11.82;8.85;;;;;;;;;;5048383;28;20175;-79
2023/06/22 02:52:06;;;;;;;11.60;8.18;;;;;;;;;;5030144;28;20506;-80
2023/06/22 02:54:33;;;;;;;11.02;7.53;;;;;;;;;;5030513;28;20487;-79
2023/06/22 02:57:02;;;;;;;12.93;8.13;;;;;;;;;;5030128;28;20037;-80
2023/06/22 02:59:28;;;;;;;11.50;7.95;;;;;;;;;;5051328;28;20029;-79
2023/06/22 03:01:55;;;;;;;9.32;7.38;;;;;;;;;;5058270;28;20033;-80
2023/06/22 03:04:21;;;;;;;12.70;6.78;;;;;;;;;;5047686;28;20136;-80
2023/06/22 03:06:50;;;;;;;13.98;7.60;;;;;;;;;;5048979;28;20017;-79
2023/06/22 03:09:17;;;;;;;10.98;7.32;;;;;;;;;;5047892;28;20442;-80
2023/06/22 03:11:43;;;;;;;12.50;6.88;;;;;;;;;;5030804;28;20104;-78
2023/06/22 03:14:09;;;;;;;12.73;8.20;;;;;;;;;;5036284;28;20075;-79
2023/06/22 03:16:36;;;;;;;11.13;8.50;;;;;;;;;;5049941;28;20033;-78
2023/06/22 03:19:02;;;;;;;13.10;8.82;;;;;;;;;;5050316;28;20062;-81
2023/06/22 03:21:29;;;;;;;14.48;11.40;;;;;;;;;;5033075;28;20025;-80
2023/06/22 03:23:55;;;;;;;13.82;10.35;;;;;;;;;;5049002;28;20029;-80
2023/06/22 03:26:21;;;;;;;14.18;11.50;;;;;;;;;;5044170;28;20021;-81
2023/06/22 03:28:47;;;;;;;12.38;7.70;;;;;;;;;;5048509;28;20048;-80
2023/06/22 03:31:13;;;;;;;12.80;8.43;;;;;;;;;;5048348;28;20471;-79
2023/06/22 03:33:39;;;;;;;13.00;9.52;;;;;;;;;;5041081;28;20114;-79
2023/06/22 03:36:05;;;;;;;15.05;10.70;;;;;;;;;;5053523;28;20025;-80
2023/06/22 03:38:31;;;;;;;12.93;8.75;;;;;;;;;;5033989;28;20120;-79
2023/06/22 03:40:57;;;;;;;12.43;10.05;;;;;;;;;;5037615;28;20116;-78
2023/06/22 03:43:23;;;;;;;17.85;13.77;;;;;;;;;;5051494;28;20120;-78
2023/06/22 03:45:49;;;;;;;12.95;10.25;;;;;;;;;;5031290;28;20044;-78
2023/06/22 03:48:16;;;;;;;15.25;12.80;;;;;;;;;;5044183;28;20116;-80
2023/06/22 03:50:43;;;;;;;15.13;11.20;;;;;;;;;;5051543;28;20047;-78
2023/06/22 03:53:10;;;;;;;11.43;8.57;;;;;;;;;;5034309;28;20028;-78
2023/06/22 03:55:37;;;;;;;11.65;8.43;;;;;;;;;;5050518;28;20408;-81
2023/06/22 03:58:06;;;;;;;16.15;11.75;;;;;;;;;;5051151;28;20037;-78
2023/06/22 04:00:32;;;;;;;14.38;12.70;;;;;;;;;;5051189;28;20051;-79
2023/06/22 04:02:58;;;;;;;16.38;13.45;;;;;;;;;;5033737;28;20025;-79
2023/06/22 04:05:24;;;;;;;17.08;10.65;;;;;;;;;;5051216;28;20363;-80
2023/06/22 04:07:50;;;;;;;18.83;13.40;;;;;;;;;;5037311;28;20031;-81
2023/06/22 04:10:16;;;;;;;16.00;11.13;;;;;;;;;;5039727;28;20081;-79
2023/06/22 04:12:42;;;;;;;15.18;11.85;;;;;;;;;;5053167;28;20025;-79
2023/06/22 04:15:09;;;;;;;10.20;7.03;;;;;;;;;;5059282;28;20132;-78
2023/06/22 04:17:34;;;;;;;11.05;8.27;;;;;;;;;;5048960;28;20043;-78
2023/06/22 04:20:00;;;;;;;9.23;6.68;;;;;;;;;;5050352;28;20029;-79
2023/06/22 04:22:26;;;;;;;13.82;10.73;;;;;;;;;;5050461;28;20471;-81
2023/06/22 04:24:53;;;;;;;10.75;8.43;;;;;;;;;;5032615;28;20036;-80
2023/06/22 04:27:19;;;;;;;21.98;17.40;;;;;;;;;;5049166;28;20025;-78
2023/06/22 04:29:48;;;;;;;23.25;18.85;;;;;;;;;;5055397;28;20017;-77
2023/06/22 04:32:14;;;;;;;18.40;15.55;;;;;;;;;;5050879;28;20487;-80
2023/06/22 04:34:40;;;;;;;21.77;17.02;;;;;;;;;;5050288;28;20025;-78
2023/06/22 04:37:06;;;;;;;20.70;15.57;;;;;;;;;;5062817;28;20486;-80
2023/06/22 04:39:32;;;;;;;16.35;14.23;;;;;;;;;;5050955;28;20517;-80
2023/06/22 04:42:01;;;;;;;18.77;16.48;;;;;;;;;;5032773;28;20017;-78
2023/06/22 04:44:28;;;;;;;16.73;14.02;;;;;;;;;;5036975;28;20029;-79
2023/06/22 04:47:08;;;;;;;20.23;17.35;;;;;;;;;;5028916;28;20043;-79
2023/06/22 04:49:37;;;;;;;21.38;16.92;;;;;;;;;;5044090;28;20119;-79
2023/06/22 04:52:04;;;;;;;24.10;20.10;;;;;;;;;;5040483;28;20056;-79
2023/06/22 04:54:32;;;;;;;23.45;17.58;;;;;;;;;;5049927;28;20442;-80
2023/06/22 04:57:02;;;;;;;19.85;17.65;;;;;;;;;;5049410;28;20068;-79
2023/06/22 04:59:29;;;;;;;20.58;15.60;;;;;;;;;;5049637;28;20037;-78
2023/06/22 05:01:56;;;;;;;21.77;18.10;;;;;;;;;;5049604;28;20021;-80
2023/06/22 05:04:25;;;;;;;14.20;12.57;;;;;;;;;;5050033;28;20025;-80
2023/06/22 05:06:52;;;;;;;17.48;13.73;;;;;;;;;;5034603;28;20395;-80
2023/06/22 05:09:18;;;;;;;22.40;19.13;;;;;;;;;;5043062;28;20463;-79
2023/06/22 05:11:47;;;;;;;24.42;18.60;;;;;;;;;;5044150;28;20070;-80
2023/06/22 05:14:13;;;;;;;13.90;10.88;;;;;;;;;;5041690;28;20021;-80
2023/06/22 05:16:40;;;;;;;18.92;14.88;;;;;;;;;;5039150;28;20043;-80
2023/06/22 05:19:06;;;;;;;20.02;14.70;;;;;;;;;;5049177;28;20025;-80
2023/06/22 05:21:32;;;;;;;19.65;15.25;;;;;;;;;;5049563;28;20086;-81
2023/06/22 05:24:02;;;;;;;16.83;14.45;;;;;;;;;;5049472;28;20491;-79
2023/06/22 05:26:29;;;;;;;17.05;14.40;;;;;;;;;;5049126;28;20017;-80
2023/06/22 05:28:55;;;;;;;17.25;15.02;;;;;;;;;;5057476;28;20441;-79
2023/06/22 05:31:22;;;;;;;19.38;16.88;;;;;;;;;;5054418;28;20052;-80
2023/06/22 05:33:49;;;;;;;18.48;14.75;;;;;;;;;;5052522;28;20060;-80
2023/06/22 05:36:15;;;;;;;16.58;10.82;;;;;;;;;;5052463;28;20034;-80
2023/06/22 05:38:41;;;;;;;20.17;13.65;;;;;;;;;;5037524;28;20048;-81
2023/06/22 05:41:07;;;;;;;14.30;9.63;;;;;;;;;;5063351;28;20029;-79
2023/06/22 05:43:33;;;;;;;20.13;16.63;;;;;;;;;;5049977;28;20511;-80
2023/06/22 05:46:00;;;;;;;20.52;16.73;;;;;;;;;;5048367;28;20025;-80
2023/06/22 05:48:26;;;;;;;16.40;12.73;;;;;;;;;;5029948;28;20075;-80
2023/06/22 05:50:52;;;;;;;17.65;14.45;;;;;;;;;;5049018;28;20078;-77
2023/06/22 05:53:18;;;;;;;21.00;17.60;;;;;;;;;;5034430;28;20027;-80
2023/06/22 05:55:44;;;;;;;18.20;14.70;;;;;;;;;;5052916;28;20025;-79
2023/06/22 05:58:11;;;;;;;17.23;14.10;;;;;;;;;;5053958;28;20410;-80
2023/06/22 06:00:37;;;;;;;16.13;14.30;;;;;;;;;;5054944;28;20068;-79
2023/06/22 06:03:03;;;;;;;20.80;17.15;;;;;;;;;;5051544;28;20055;-81
2023/06/22 06:05:33;;;;;;;17.23;13.98;;;;;;;;;;5044132;28;20399;-80
2023/06/22 06:07:59;;;;;;;15.93;14.23;;;;;;;;;;5042938;28;20028;-79
2023/06/22 06:10:25;;;;;;;15.32;13.10;;;;;;;;;;5020277;28;20102;-79
2023/06/22 06:12:51;;;;;;;17.33;15.35;;;;;;;;;;5062210;28;20035;-79
2023/06/22 06:15:18;;;;;;;12.07;9.55;;;;;;;;;;5031734;28;20028;-79
2023/06/22 06:17:47;;;;;;;13.75;10.38;;;;;;;;;;5047199;28;20041;-80
2023/06/22 06:20:16;;;;;;;18.20;15.25;;;;;;;;;;5038574;28;20032;-78
2023/06/22 06:22:43;;;;;;;15.40;11.52;;;;;;;;;;5035026;28;20058;-80
2023/06/22 06:25:09;;;;;;;11.85;8.57;;;;;;;;;;5051291;28;20029;-79
2023/06/22 06:27:35;;;;;;;12.98;11.63;;;;;;;;;;5034040;28;20497;-80
2023/06/22 06:30:01;;;;;;;14.13;11.75;;;;;;;;;;5041802;28;20026;-80
2023/06/22 06:32:27;;;;;;;17.48;15.15;;;;;;;;;;5045020;28;20423;-78
2023/06/22 06:34:53;;;;;;;16.08;11.57;;;;;;;;;;5031397;28;20021;-78
2023/06/22 06:37:19;;;;;;;13.75;9.95;;;;;;;;;;5036047;28;20037;-79
2023/06/22 06:39:45;;;;;;;5.70;3.05;;;;;;;;;;5041477;28;20017;-80
2023/06/22 06:42:11;;;;;;;10.38;8.35;;;;;;;;;;5040210;28;20083;-80
2023/06/22 06:44:37;;;;;;;12.88;8.95;;;;;;;;;;5037347;28;20031;-82
2023/06/22 06:47:04;;;;;;;14.85;12.63;;;;;;;;;;5030010;28;20755;-81
2023/06/22 06:49:30;;;;;;;12.23;9.63;;;;;;;;;;5036069;28;20029;-81
2023/06/22 06:51:56;;;;;;;11.55;8.65;;;;;;;;;;5030579;28;20025;-81
2023/06/22 06:54:22;;;;;;;9.60;7.18;;;;;;;;;;5049017;28;20031;-80
2023/06/22 06:56:48;;;;;;;12.95;8.32;;;;;;;;;;5035573;28;20072;-81
2023/06/22 06:59:17;;;;;;;11.85;8.15;;;;;;;;;;5035360;28;20059;-81
2023/06/22 07:01:44;;;;;;;14.43;10.52;;;;;;;;;;5055866;28;20550;-81
2023/06/22 07:04:10;;;;;;;13.20;10.35;;;;;;;;;;5048114;28;20909;-81
2023/06/22 07:06:37;;;;;;;9.32;7.35;;;;;;;;;;5048531;28;20060;-81
2023/06/22 07:09:03;;;;;;;11.48;8.57;;;;;;;;;;5042576;28;20025;-80
2023/06/22 07:11:29;;;;;;;11.57;7.82;;;;;;;;;;5045131;28;20029;-80
2023/06/22 07:13:55;;;;;;;11.15;6.78;;;;;;;;;;5038472;28;20025;-80
2023/06/22 07:16:22;;;;;;;9.35;6.90;;;;;;;;;;5039438;28;20021;-80
2023/06/22 07:18:48;;;;;;;8.40;6.03;;;;;;;;;;5045292;28;20030;-81
2023/06/22 07:21:14;;;;;;;6.63;4.22;;;;;;;;;;5044968;28;20680;-82
2023/06/22 07:23:40;;;;;;;5.45;2.85;;;;;;;;;;5038504;28;20028;-82
2023/06/22 07:26:08;;;;;;;10.52;6.47;;;;;;;;;;5059697;28;20029;-83
2023/06/22 07:28:36;;;;;;;7.97;5.57;;;;;;;;;;5058269;28;20028;-81
2023/06/22 07:31:03;;;;;;;7.38;5.22;;;;;;;;;;5055582;28;20074;-83
2023/06/22 07:33:29;;;;;;;8.98;5.68;;;;;;;;;;5033351;28;20045;-82
2023/06/22 07:35:55;;;;;;;12.88;9.02;;;;;;;;;;5050977;28;20035;-84
2023/06/22 07:38:21;;;;;;;11.50;9.05;;;;;;;;;;5050587;28;20041;-83
2023/06/22 07:40:47;;;;;;;7.25;4.97;;;;;;;;;;5046210;28;20036;-80
2023/06/22 07:43:13;;;;;;;5.82;3.72;;;;;;;;;;5054366;28;20056;-81
2023/06/22 07:45:40;;;;;;;10.35;8.02;;;;;;;;;;5037367;28;20102;-83
2023/06/22 07:48:06;;;;;;;10.27;7.20;;;;;;;;;;5050665;28;20059;-84
2023/06/22 07:50:32;;;;;;;7.90;4.95;;;;;;;;;;5038367;28;20509;-82
2023/06/22 07:52:59;;;;;;;4.82;2.72;;;;;;;;;;5056292;28;20021;-82
2023/06/22 07:55:25;;;;;;;6.05;4.45;;;;;;;;;;5044866;28;20390;-83
2023/06/22 07:57:51;;;;;;;11.80;7.97;;;;;;;;;;5050843;28;20040;-78
2023/06/22 08:00:20;;;;;;;7.40;5.00;;;;;;;;;;5065491;28;20033;-83
2023/06/22 08:02:47;;;;;;;8.35;5.72;;;;;;;;;;5038784;28;20093;-81
2023/06/22 08:05:14;;;;;;;9.30;5.55;;;;;;;;;;5052724;28;20025;-82
2023/06/22 08:07:42;;;;;;;8.55;5.28;;;;;;;;;;5038062;28;20040;-80
2023/06/22 08:10:11;;;;;;;9.52;5.53;;;;;;;;;;5051343;28;20322;-80
2023/06/22 08:12:37;;;;;;;8.43;5.53;;;;;;;;;;5059973;28;20111;-81
2023/06/22 08:15:03;;;;;;;7.38;4.32;;;;;;;;;;5076619;28;20056;-80
2023/06/22 08:17:29;;;;;;;9.60;6.03;;;;;;;;;;5053497;28;20059;-81
2023/06/22 08:19:55;;;;;;;5.72;3.38;;;;;;;;;;5057347;28;20017;-80
2023/06/22 08:22:21;;;;;;;6.07;4.20;;;;;;;;;;5063597;28;20025;-80
2023/06/22 08:24:47;;;;;;;7.25;4.03;;;;;;;;;;5050742;28;20083;-79
2023/06/22 08:27:14;;;;;;;5.90;3.20;;;;;;;;;;5050953;28;20380;-81
2023/06/22 08:29:45;;;;;;;7.20;4.47;;;;;;;;;;5049495;28;20025;-79
2023/06/22 08:32:11;;;;;;;7.60;5.50;;;;;;;;;;5045396;28;20049;-78
2023/06/22 08:34:37;;;;;;;4.40;2.47;;;;;;;;;;5064199;28;20028;-80
2023/06/22 08:37:06;;;;;;;6.53;4.05;;;;;;;;;;5065116;28;20033;-81
2023/06/22 08:39:32;;;;;;;7.47;4.00;;;;;;;;;;5064108;28;20029;-78
2023/06/22 08:41:59;;;;;;;6.00;2.97;;;;;;;;;;5040614;28;20102;-79
2023/06/22 08:44:25;;;;;;;10.75;3.75;;;;;;;;;;5063737;28;20025;-78
2023/06/22 08:46:53;;;;;;;9.40;5.53;;;;;;;;;;5034807;28;20032;-79
2023/06/22 08:49:19;;;;;;;9.23;5.13;;;;;;;;;;5049313;28;20028;-80
2023/06/22 08:51:47;;;;;;;7.93;5.70;;;;;;;;;;5049832;28;20029;-81
2023/06/22 08:54:13;;;;;;;8.20;4.75;;;;;;;;;;5050381;28;20025;-80
2023/06/22 08:56:39;;;;;;;9.73;5.38;;;;;;;;;;5052785;28;20025;-79
2023/06/22 08:59:07;;;;;;;5.00;2.60;;;;;;;;;;5070204;28;20028;-80
2023/06/22 09:01:33;;;;;;;6.72;2.90;;;;;;;;;;5071984;28;20024;-80
2023/06/22 09:03:59;;;;;;;7.10;3.67;;;;;;;;;;5069858;28;20125;-80
2023/06/22 09:06:26;;;;;;;4.93;3.15;;;;;;;;;;5071122;28;20029;-80
2023/06/22 09:08:52;;;;;;;4.55;3.13;;;;;;;;;;5069843;28;20032;-78
2023/06/22 09:11:18;;;;;;;4.45;2.90;;;;;;;;;;5068305;28;20037;-79
2023/06/22 09:13:53;;;;;;;6.85;4.00;;;;;;;;;;5052821;28;20102;-79
2023/06/22 09:16:19;;;;;;;5.30;3.58;;;;;;;;;;5048519;28;20112;-80
2023/06/22 09:18:48;;;;;;;5.53;2.75;;;;;;;;;;5048467;28;20598;-81
2023/06/22 09:21:14;;;;;;;11.88;5.75;;;;;;;;;;5066937;28;20025;-81
2023/06/22 09:23:40;;;;;;;3.95;2.38;;;;;;;;;;5068385;28;20054;-82
2023/06/22 09:26:06;;;;;;;4.78;2.80;;;;;;;;;;5051166;28;20066;-82
2023/06/22 09:28:33;;;;;;;4.28;2.22;;;;;;;;;;5060524;28;20432;-82
2023/06/22 09:30:59;;;;;;;5.82;3.50;;;;;;;;;;5055735;28;20036;-83
2023/06/22 09:33:26;;;;;;;4.18;2.60;;;;;;;;;;5067325;28;20045;-79
2023/06/22 09:35:52;;;;;;;6.15;3.40;;;;;;;;;;5067502;28;20038;-80
2023/06/22 09:38:18;;;;;;;5.47;2.78;;;;;;;;;;5067208;28;20060;-82
2023/06/22 09:40:44;;;;;;;3.65;1.83;;;;;;;;;;5065190;28;20037;-80
2023/06/22 09:43:10;;;;;;;4.15;2.33;;;;;;;;;;5050829;28;20536;-79
2023/06/22 09:45:36;;;;;;;3.97;2.45;;;;;;;;;;5051604;28;20043;-79
2023/06/22 09:48:02;;;;;;;3.47;2.10;;;;;;;;;;5070042;28;20028;-80
2023/06/22 09:50:28;;;;;;;5.97;3.72;;;;;;;;;;5067412;28;20024;-81
2023/06/22 09:52:54;;;;;;;4.78;2.60;;;;;;;;;;5042820;28;20029;-80
2023/06/22 09:55:23;;;;;;;6.15;3.30;;;;;;;;;;5083531;28;20466;-80
2023/06/22 09:57:54;;;;;;;5.13;3.33;;;;;;;;;;5055567;28;20060;-80
2023/06/22 10:00:21;;;;;;;5.18;3.38;;;;;;;;;;5068143;28;20099;-80
2023/06/22 10:02:47;;;;;;;4.28;2.50;;;;;;;;;;5070235;28;20040;-81
2023/06/22 10:05:13;;;;;;;6.05;2.88;;;;;;;;;;5077130;28;20032;-81
2023/06/22 10:07:42;;;;;;;3.95;2.45;;;;;;;;;;5081372;28;20084;-82
2023/06/22 10:10:08;;;;;;;7.53;3.90;;;;;;;;;;5055019;28;20031;-82
2023/06/22 10:12:34;;;;;;;7.70;2.70;;;;;;;;;;5067422;28;20390;-81
2023/06/22 10:15:00;;;;;;;4.35;2.50;;;;;;;;;;5060590;28;20029;-81
2023/06/22 10:17:26;;;;;;;5.65;2.97;;;;;;;;;;5060919;28;20037;-81
2023/06/22 10:19:52;;;;;;;7.00;3.13;;;;;;;;;;5058363;28;20112;-80
2023/06/22 10:22:18;;;;;;;4.30;2.50;;;;;;;;;;5057153;28;20040;-81
2023/06/22 10:24:45;;;;;;;4.72;2.50;;;;;;;;;;5057143;28;20028;-83
2023/06/22 10:27:12;;;;;;;5.25;3.00;;;;;;;;;;5059398;28;20031;-80
2023/06/22 10:29:38;;;;;;;6.43;3.58;;;;;;;;;;5047684;28;20447;-81
2023/06/22 10:32:04;;;;;;;5.45;3.05;;;;;;;;;;5043460;28;20053;-83
2023/06/22 10:34:30;;;;;;;4.78;2.60;;;;;;;;;;5053533;28;20028;-83
2023/06/22 10:36:56;;;;;;;5.22;3.70;;;;;;;;;;5055291;28;20090;-83
2023/06/22 10:39:22;;;;;;;3.60;2.20;;;;;;;;;;5066136;28;20025;-82
2023/06/22 10:41:48;;;;;;;3.83;2.15;;;;;;;;;;5081356;28;20021;-81
2023/06/22 10:44:14;;;;;;;5.05;2.60;;;;;;;;;;5070573;28;20047;-82
2023/06/22 10:46:40;;;;;;;6.47;3.15;;;;;;;;;;5084877;28;20025;-80
2023/06/22 10:49:06;;;;;;;4.63;2.35;;;;;;;;;;5080362;28;20027;-81
2023/06/22 10:51:33;;;;;;;4.80;2.60;;;;;;;;;;5080316;28;20020;-81
2023/06/22 10:53:59;;;;;;;3.50;2.45;;;;;;;;;;5066450;28;20073;-82
2023/06/22 10:56:25;;;;;;;4.38;2.83;;;;;;;;;;5055677;28;20037;-79
2023/06/22 10:58:52;;;;;;;4.18;2.70;;;;;;;;;;5041060;28;20037;-80
2023/06/22 11:01:18;;;;;;;5.97;2.30;;;;;;;;;;5056978;28;20024;-84
2023/06/22 11:03:44;;;;;;;5.30;2.92;;;;;;;;;;5068091;28;20040;-82
2023/06/22 11:06:10;;;;;;;5.72;3.17;;;;;;;;;;5038625;28;20391;-80
2023/06/22 11:08:36;;;;;;;5.07;3.30;;;;;;;;;;5073064;28;20032;-80
2023/06/22 11:11:02;;;;;;;5.53;3.13;;;;;;;;;;5045707;28;20037;-80
2023/06/22 11:13:28;;;;;;;4.15;2.40;;;;;;;;;;5055919;28;20063;-78
2023/06/22 11:15:54;;;;;;;3.50;1.98;;;;;;;;;;5072504;28;20055;-81
2023/06/22 11:18:23;;;;;;;4.95;3.00;;;;;;;;;;5065619;28;20392;-80
2023/06/22 11:20:49;;;;;;;3.97;2.28;;;;;;;;;;5062241;28;20023;-78
2023/06/22 11:23:15;;;;;;;3.85;2.55;;;;;;;;;;5072229;28;20390;-77
2023/06/22 11:25:42;;;;;;;4.43;2.28;;;;;;;;;;5063386;28;20031;-77
2023/06/22 11:28:08;;;;;;;4.85;2.58;;;;;;;;;;5046196;28;20160;-77
2023/06/22 11:30:34;;;;;;;5.85;2.95;;;;;;;;;;5060955;28;20033;-80
2023/06/22 11:33:00;;;;;;;8.05;3.25;;;;;;;;;;5064210;28;20044;-77
2023/06/22 11:35:26;;;;;;;5.15;2.80;;;;;;;;;;5053927;28;20030;-78
2023/06/22 11:37:52;;;;;;;8.43;3.40;;;;;;;;;;5051806;28;20048;-78
2023/06/22 11:40:18;;;;;;;6.85;4.25;;;;;;;;;;5033765;28;20404;-79
2023/06/22 11:42:44;;;;;;;6.18;4.20;;;;;;;;;;5056711;28;20489;-79
2023/06/22 11:45:10;;;;;;;5.57;3.42;;;;;;;;;;5051455;28;20059;-79
2023/06/22 11:47:37;;;;;;;6.78;4.75;;;;;;;;;;5032684;28;20036;-79
2023/06/22 11:50:04;;;;;;;5.45;3.58;;;;;;;;;;5051536;28;20377;-82
2023/06/22 11:52:30;;;;;;;4.10;2.30;;;;;;;;;;5052972;28;20437;-82
2023/06/22 11:54:56;;;;;;;3.90;2.22;;;;;;;;;;5068026;28;20025;-80
2023/06/22 11:57:22;;;;;;;5.47;2.97;;;;;;;;;;5033845;28;20075;-80
2023/06/22 11:59:48;;;;;;;8.00;3.33;;;;;;;;;;5059443;28;20483;-80
2023/06/22 12:02:14;;;;;;;8.25;3.53;;;;;;;;;;5047613;28;20068;-79
2023/06/22 12:04:40;;;;;;;6.95;3.17;;;;;;;;;;5055770;28;20059;-81
2023/06/22 12:07:06;;;;;;;12.77;3.72;;;;;;;;;;5054408;28;20025;-78
2023/06/22 12:09:32;;;;;;;8.77;3.25;;;;;;;;;;5052523;28;20498;-79
2023/06/22 12:11:58;;;;;;;9.20;3.70;;;;;;;;;;5051369;28;20024;-79
2023/06/22 12:14:24;;;;;;;7.97;3.55;;;;;;;;;;5053970;28;20545;-77
2023/06/22 12:16:50;;;;;;;10.60;3.55;;;;;;;;;;5053409;28;20032;-77
2023/06/22 12:19:16;;;;;;;6.20;3.22;;;;;;;;;;5039323;28;20035;-84
2023/06/22 12:21:45;;;;;;;7.95;5.15;;;;;;;;;;5038811;28;20033;-77
2023/06/22 12:24:11;;;;;;;7.68;4.07;;;;;;;;;;5055743;28;20070;-76
2023/06/22 12:26:37;;;;;;;7.03;3.95;;;;;;;;;;5053052;28;20021;-81
2023/06/22 12:29:03;;;;;;;5.70;3.25;;;;;;;;;;5069626;28;20032;-76
2023/06/22 12:31:29;;;;;;;9.43;4.07;;;;;;;;;;5051358;28;20025;-77
2023/06/22 12:33:57;;;;;;;9.93;6.25;;;;;;;;;;5049486;28;20048;-75
2023/06/22 12:36:24;;;;;;;8.45;5.13;;;;;;;;;;5033489;28;20116;-79
2023/06/22 12:38:51;;;;;;;9.68;8.13;;;;;;;;;;5052943;28;20048;-79
2023/06/22 12:41:17;;;;;;;13.80;10.45;;;;;;;;;;5054560;28;20449;-81
2023/06/22 12:43:43;;;;;;;11.75;9.95;;;;;;;;;;5059025;28;20105;-79
2023/06/22 12:46:09;;;;;;;9.63;7.07;;;;;;;;;;5032282;28;20125;-78
2023/06/22 12:48:41;;;;;;;14.57;12.02;;;;;;;;;;5049955;28;20063;-79
2023/06/22 12:51:08;;;;;;;13.18;9.75;;;;;;;;;;5041771;28;20581;-77
2023/06/22 12:53:35;;;;;;;13.32;10.48;;;;;;;;;;5050598;28;20018;-77
2023/06/22 12:56:02;;;;;;;9.75;7.97;;;;;;;;;;5055653;28;20401;-78
2023/06/22 12:58:28;;;;;;;8.50;6.85;;;;;;;;;;5037891;28;20049;-78
2023/06/22 13:00:54;;;;;;;13.48;8.57;;;;;;;;;;5050282;28;20079;-78
2023/06/22 13:03:20;;;;;;;15.68;11.88;;;;;;;;;;5049452;28;20022;-77
2023/06/22 13:05:46;;;;;;;12.63;9.75;;;;;;;;;;5070429;28;20028;-77
2023/06/22 13:08:13;;;;;;;14.82;12.10;;;;;;;;;;5069049;28;20453;-76
2023/06/22 13:10:39;;;;;;;17.33;15.63;;;;;;;;;;5032525;28;20117;-76
2023/06/22 13:13:05;;;;;;;17.73;15.85;;;;;;;;;;5050130;28;20029;-76
2023/06/22 13:15:31;;;;;;;14.82;13.00;;;;;;;;;;5049681;28;20029;-76
2023/06/22 13:17:57;;;;;;;15.93;14.25;;;;;;;;;;5048487;28;20848;-78
2023/06/22 13:20:23;;;;;;;17.88;15.77;;;;;;;;;;5045616;28;20032;-78
2023/06/22 13:22:49;;;;;;;14.95;13.15;;;;;;;;;;5062246;28;20032;-78
2023/06/22 13:25:18;;;;;;;12.75;10.18;;;;;;;;;;5051351;28;20075;-76
2023/06/22 13:27:45;;;;;;;14.73;10.82;;;;;;;;;;5049213;28;20028;-78
2023/06/22 13:30:11;;;;;;;13.38;10.43;;;;;;;;;;5055026;28;20486;-75
2023/06/22 13:32:37;;;;;;;9.57;5.13;;;;;;;;;;5050713;28;20053;-75
2023/06/22 13:35:03;;;;;;;19.88;13.68;;;;;;;;;;5050263;28;20406;-76
2023/06/22 13:37:31;;;;;;;10.95;9.48;;;;;;;;;;5070940;28;20731;-76
2023/06/22 13:39:59;;;;;;;9.50;7.68;;;;;;;;;;5055294;28;20486;-75
2023/06/22 13:42:25;;;;;;;11.65;9.52;;;;;;;;;;5053698;28;20031;-77
2023/06/22 13:44:51;;;;;;;16.95;15.00;;;;;;;;;;5047674;28;20116;-75
2023/06/22 13:47:17;;;;;;;16.10;13.23;;;;;;;;;;5023986;28;20029;-76
2023/06/22 13:49:43;;;;;;;21.27;15.57;;;;;;;;;;5042942;28;20021;-76
2023/06/22 13:52:10;;;;;;;12.00;10.25;;;;;;;;;;5043422;28;20102;-74
2023/06/22 13:54:37;;;;;;;18.60;15.05;;;;;;;;;;5024937;28;20028;-76
2023/06/22 13:57:03;;;;;;;15.07;12.55;;;;;;;;;;5036773;28;20400;-75
2023/06/22 13:59:29;;;;;;;18.35;15.70;;;;;;;;;;5042495;28;20029;-76
2023/06/22 14:01:55;;;;;;;9.00;6.63;;;;;;;;;;5045002;28;20045;-77
2023/06/22 14:04:22;;;;;;;9.80;7.60;;;;;;;;;;5045817;28;20029;-76
2023/06/22 14:06:48;;;;;;;21.92;19.63;;;;;;;;;;5043274;28;20085;-76
2023/06/22 14:09:14;;;;;;;19.95;15.73;;;;;;;;;;5038778;28;20116;-75
2023/06/22 14:11:40;;;;;;;22.23;18.50;;;;;;;;;;5043168;28;20087;-76
2023/06/22 14:14:06;;;;;;;22.08;19.77;;;;;;;;;;5042902;28;20028;-79
2023/06/22 14:16:32;;;;;;;22.38;20.00;;;;;;;;;;5039246;28;20112;-75
2023/06/22 14:18:58;;;;;;;21.52;19.33;;;;;;;;;;5038226;28;20475;-75
2023/06/22 14:21:26;;;;;;;20.35;18.33;;;;;;;;;;5039022;28;20021;-74
2023/06/22 14:23:52;;;;;;;26.30;23.75;;;;;;;;;;5041758;28;20028;-74
2023/06/22 14:26:18;;;;;;;25.52;22.27;;;;;;;;;;5039870;28;20036;-74
2023/06/22 14:28:50;;;;;;;10.57;9.02;;;;;;;;;;5037641;28;20078;-74
2023/06/22 14:31:19;;;;;;;20.13;17.88;;;;;;;;;;5025346;28;20098;-74